Time;durP1;ratioP1;P1;durP2;ratioP2;P2;SDS_P1;SDS_P2;PMS_P1;PMS_P2;Temp;Humidity;BMP_temperature;BMP_pressure;BME280_temperature;BME280_humidity;BME280_pressure;Samples;Min_cycle;Max_cycle;Signal;HPM_P1;HPM_P2
2022/08/04 00:02:04;;;;;;;5.05;4.65;;;;;;;19.75;100.00;100269.95;1748916;80;21021;-69
2022/08/04 00:04:44;;;;;;;5.95;5.55;;;;;;;19.74;100.00;100266.98;1682810;80;21096;-68
2022/08/04 00:07:26;;;;;;;5.65;5.25;;;;;;;19.73;100.00;100271.28;1753202;80;21173;-69
2022/08/04 00:10:03;;;;;;;5.70;5.40;;;;;;;19.74;100.00;100275.61;1701595;82;20989;-68
2022/08/04 00:12:32;;;;;;;5.45;5.12;;;;;;;19.73;100.00;100284.27;1703925;82;21045;-68
2022/08/04 00:15:04;;;;;;;5.90;5.50;;;;;;;19.70;100.00;100276.61;1745047;81;20989;-68
2022/08/04 00:17:40;;;;;;;5.87;5.33;;;;;;;19.68;100.00;100268.47;1746799;81;21019;-69
2022/08/04 00:20:10;;;;;;;6.97;5.62;;;;;;;19.63;100.00;100272.75;1698858;83;21085;-68
2022/08/04 00:22:39;;;;;;;7.45;6.78;;;;;;;19.58;100.00;100271.33;1708333;82;21034;-69
2022/08/04 00:25:07;;;;;;;5.97;5.58;;;;;;;19.52;100.00;100271.52;1774972;79;21537;-68
2022/08/04 00:27:37;;;;;;;6.45;5.95;;;;;;;19.47;100.00;100266.84;1759032;80;21043;-69
2022/08/04 00:30:06;;;;;;;6.80;6.08;;;;;;;19.45;100.00;100271.68;1755947;80;20987;-67
2022/08/04 00:32:33;;;;;;;7.72;7.03;;;;;;;19.47;100.00;100268.20;1749111;80;21031;-69
2022/08/04 00:35:00;;;;;;;7.17;6.67;;;;;;;19.53;100.00;100272.59;1753595;80;20999;-68
2022/08/04 00:37:27;;;;;;;7.90;7.17;;;;;;;19.54;100.00;100272.89;1757706;80;21130;-69
2022/08/04 00:39:55;;;;;;;8.18;7.37;;;;;;;19.55;100.00;100279.11;1759269;80;21142;-68
2022/08/04 00:42:38;;;;;;;7.25;6.78;;;;;;;19.55;100.00;100273.19;1754784;80;21022;-70
2022/08/04 00:45:34;;;;;;;7.72;7.12;;;;;;;19.53;100.00;100277.19;1773314;80;21463;-70
2022/08/04 00:48:17;;;;;;;6.85;6.45;;;;;;;19.52;100.00;100277.73;1758107;80;21126;-68
2022/08/04 00:50:57;;;;;;;6.47;5.60;;;;;;;19.56;100.00;100269.41;1766644;80;21045;-69
2022/08/04 00:54:07;;;;;;;8.43;7.70;;;;;;;19.57;100.00;100272.92;1770081;79;20982;-69
2022/08/04 00:56:57;;;;;;;7.97;7.35;;;;;;;19.54;100.00;100281.00;1744196;81;21010;-69
2022/08/04 00:59:53;;;;;;;9.60;8.00;;;;;;;19.52;100.00;100283.14;1698148;82;20973;-69
2022/08/04 01:02:45;;;;;;;9.00;8.30;;;;;;;19.48;100.00;100292.82;1718086;82;21019;-70
2022/08/04 01:05:35;;;;;;;8.55;7.60;;;;;;;19.43;100.00;100291.39;1743218;80;21086;-68
2022/08/04 01:08:40;;;;;;;7.37;6.87;;;;;;;19.42;100.00;100291.09;1723303;82;21686;-68
2022/08/04 01:11:32;;;;;;;8.95;8.23;;;;;;;19.43;100.00;100290.84;1751298;81;20983;-69
2022/08/04 01:14:19;;;;;;;8.55;7.92;;;;;;;19.42;100.00;100298.69;1712500;82;21107;-70
2022/08/04 01:17:00;;;;;;;9.28;8.30;;;;;;;19.45;100.00;100298.71;1741954;82;21081;-69
2022/08/04 01:19:54;;;;;;;9.05;8.18;;;;;;;19.48;100.00;100296.88;1746506;81;21127;-69
2022/08/04 01:23:04;;;;;;;8.00;6.53;;;;;;;19.48;100.00;100298.23;1740879;81;21515;-70
2022/08/04 01:26:02;;;;;;;9.48;6.92;;;;;;;19.47;100.00;100299.28;1728887;81;20969;-69
2022/08/04 01:29:03;;;;;;;7.47;6.97;;;;;;;19.43;100.00;100307.06;1734366;80;21126;-70
2022/08/04 01:31:56;;;;;;;8.35;7.65;;;;;;;19.41;100.00;100307.03;1697596;81;21525;-69
2022/08/04 01:34:26;;;;;;;8.28;7.55;;;;;;;19.41;100.00;100305.14;1748202;81;20935;-69
2022/08/04 01:37:01;;;;;;;9.00;8.10;;;;;;;19.45;100.00;100297.36;1745542;81;21014;-68
2022/08/04 01:39:41;;;;;;;9.00;8.30;;;;;;;19.47;100.00;100304.69;1742524;81;21010;-68
2022/08/04 01:42:11;;;;;;;8.15;7.55;;;;;;;19.49;100.00;100301.73;1746742;81;21116;-68
2022/08/04 01:44:40;;;;;;;9.63;8.83;;;;;;;19.49;100.00;100307.14;1743237;81;21038;-68
2022/08/04 01:47:08;;;;;;;8.08;7.35;;;;;;;19.45;100.00;100298.71;1751942;81;21062;-68
2022/08/04 01:49:38;;;;;;;10.25;8.48;;;;;;;19.43;100.00;100300.30;1740842;81;21018;-68
2022/08/04 01:52:09;;;;;;;8.30;7.70;;;;;;;19.44;100.00;100299.25;1714451;82;21044;-69
2022/08/04 01:54:39;;;;;;;8.55;7.95;;;;;;;19.44;100.00;100298.44;1719369;82;20977;-69
2022/08/04 01:57:06;;;;;;;9.40;8.55;;;;;;;19.45;100.00;100296.01;1712857;82;21091;-69
2022/08/04 01:59:35;;;;;;;10.15;8.08;;;;;;;19.47;100.00;100295.77;1718860;82;21035;-68
2022/08/04 02:02:01;;;;;;;9.45;8.63;;;;;;;19.47;100.00;100297.12;1716153;82;21020;-68
2022/08/04 02:04:27;;;;;;;;;;;;;;;19.43;100.00;100299.50;1720845;82;21052;-69
2022/08/04 02:07:02;;;;;;;10.13;8.87;;;;;;;19.40;100.00;100295.92;1720775;82;20107;-68
2022/08/04 02:10:07;;;;;;;9.08;8.38;;;;;;;19.34;100.00;100288.27;1732434;82;21045;-69
2022/08/04 02:12:51;;;;;;;10.28;9.25;;;;;;;19.34;100.00;100286.92;1749201;80;21030;-68
2022/08/04 02:15:28;;;;;;;10.03;9.30;;;;;;;19.36;100.00;100290.73;1704476;82;21008;-68
2022/08/04 02:18:30;;;;;;;10.40;9.45;;;;;;;19.36;100.00;100294.79;1715633;82;20980;-69
2022/08/04 02:21:02;;;;;;;10.95;9.95;;;;;;;19.37;100.00;100291.03;1720076;82;21070;-68
2022/08/04 02:23:39;;;;;;;10.43;9.53;;;;;;;19.36;100.00;100290.73;1720510;81;21089;-69
2022/08/04 02:26:20;;;;;;;10.55;9.75;;;;;;;19.36;100.00;100288.84;1734556;81;20966;-68
2022/08/04 02:28:54;;;;;;;8.78;8.08;;;;;;;19.35;100.00;100286.41;1750735;81;21115;-68
2022/08/04 02:31:44;;;;;;;10.95;10.10;;;;;;;19.37;100.00;100283.73;1711270;82;21119;-69
2022/08/04 02:34:30;;;;;;;9.85;9.05;;;;;;;19.41;100.00;100288.11;1713469;81;21037;-69
2022/08/04 02:36:59;;;;;;;11.00;9.93;;;;;;;19.38;100.00;100279.14;1732648;81;21523;-69
2022/08/04 02:39:31;;;;;;;12.00;10.82;;;;;;;19.35;100.00;100285.06;1719861;82;20984;-69
2022/08/04 02:41:58;;;;;;;11.15;10.25;;;;;;;19.31;100.00;100283.38;1713775;82;21531;-69
2022/08/04 02:44:27;;;;;;;12.60;10.68;;;;;;;19.28;100.00;100287.11;1714821;82;21529;-69
2022/08/04 02:46:55;;;;;;;12.15;11.15;;;;;;;19.25;100.00;100289.24;1721224;82;21032;-69
2022/08/04 02:49:23;;;;;;;12.28;11.15;;;;;;;19.25;100.00;100287.89;1766258;81;21080;-69
2022/08/04 02:51:54;;;;;;;11.12;10.32;;;;;;;19.27;100.00;100282.25;1766408;81;21478;-69
2022/08/04 02:54:41;;;;;;;10.45;9.68;;;;;;;19.29;100.00;100281.97;1766410;81;21115;-69
2022/08/04 02:57:11;;;;;;;9.93;9.13;;;;;;;19.32;100.00;100280.14;1755004;80;21110;-68
2022/08/04 03:00:12;;;;;;;14.70;10.90;;;;;;;19.33;100.00;100275.84;1755799;80;21008;-69
2022/08/04 03:03:00;;;;;;;11.30;10.40;;;;;;;19.35;100.00;100280.47;1762749;80;21030;-69
2022/08/04 03:06:12;;;;;;;9.95;9.05;;;;;;;19.32;100.00;100279.59;1741990;81;21551;-69
2022/08/04 03:08:43;;;;;;;10.90;10.10;;;;;;;19.28;100.00;100278.46;1750842;81;21131;-70
2022/08/04 03:11:16;;;;;;;11.38;10.43;;;;;;;19.25;100.00;100282.48;1746547;81;21590;-69
2022/08/04 03:14:06;;;;;;;11.05;10.20;;;;;;;19.24;100.00;100275.44;1751384;81;21054;-69
2022/08/04 03:16:47;;;;;;;10.40;9.68;;;;;;;19.21;100.00;100278.65;1714125;81;21388;-69
2022/08/04 03:19:45;;;;;;;15.00;10.40;;;;;;;19.21;100.00;100280.00;1733802;81;21182;-70
2022/08/04 03:22:37;;;;;;;12.58;10.50;;;;;;;19.23;100.00;100283.27;1724063;81;21538;-69
2022/08/04 03:25:26;;;;;;;10.63;9.73;;;;;;;19.24;100.00;100277.33;1734395;81;21107;-71
2022/08/04 03:28:25;;;;;;;11.73;10.53;;;;;;;19.25;100.00;100281.14;1738620;81;21078;-69
2022/08/04 03:31:32;;;;;;;12.65;11.40;;;;;;;19.28;100.00;100276.30;1752854;81;21108;-68
2022/08/04 03:34:54;;;;;;;11.28;10.35;;;;;;;19.34;100.00;100282.06;1747369;81;21463;-69
2022/08/04 03:37:49;;;;;;;12.37;11.38;;;;;;;19.39;100.00;100288.90;1749270;81;21083;-70
2022/08/04 03:41:03;;;;;;;12.25;11.12;;;;;;;19.44;100.00;100288.98;1741763;81;21132;-69
2022/08/04 03:44:07;;;;;;;11.20;10.30;;;;;;;19.47;100.00;100287.66;1741152;81;21530;-70
2022/08/04 03:47:13;;;;;;;11.50;10.60;;;;;;;19.49;100.00;100286.88;1734191;81;21012;-69
2022/08/04 03:50:00;;;;;;;13.72;11.20;;;;;;;19.59;100.00;100282.95;1691105;84;21036;-69
2022/08/04 03:53:07;;;;;;;12.35;11.33;;;;;;;19.60;100.00;100294.87;1723918;82;21109;-71
2022/08/04 03:55:52;;;;;;;12.73;11.70;;;;;;;19.57;100.00;100291.33;1742071;81;21065;-70
2022/08/04 03:58:55;;;;;;;13.43;12.23;;;;;;;19.59;100.00;100300.52;1751910;81;21102;-71
2022/08/04 04:01:44;;;;;;;14.47;13.05;;;;;;;19.60;100.00;100294.87;1743207;81;21009;-70
2022/08/04 04:04:39;;;;;;;13.08;11.97;;;;;;;19.63;100.00;100301.14;1740231;81;21545;-69
2022/08/04 04:07:54;;;;;;;13.80;12.35;;;;;;;19.66;100.00;100295.76;1708889;82;21100;-70
2022/08/04 04:10:44;;;;;;;13.00;12.00;;;;;;;19.66;100.00;100297.11;1707516;83;21605;-71
2022/08/04 04:13:22;;;;;;;13.22;12.03;;;;;;;19.62;100.00;100303.55;1749715;81;21008;-70
2022/08/04 04:16:09;;;;;;;15.65;13.58;;;;;;;19.63;100.00;100311.14;1723719;82;21055;-69
2022/08/04 04:19:03;;;;;;;11.73;10.72;;;;;;;19.65;100.00;100307.11;1691609;81;21050;-70
2022/08/04 04:22:18;;;;;;;12.25;11.22;;;;;;;19.72;100.00;100307.46;1733262;81;21037;-69
2022/08/04 04:25:13;;;;;;;13.68;12.40;;;;;;;19.77;100.00;100306.22;1734162;82;21136;-70
2022/08/04 04:28:02;;;;;;;11.57;10.53;;;;;;;19.76;100.00;100305.92;1734503;82;21033;-70
2022/08/04 04:30:52;;;;;;;12.90;11.95;;;;;;;19.40;100.00;100257.58;1734556;82;21037;-71
2022/08/04 04:33:28;;;;;;;16.02;13.30;;;;;;;19.69;100.00;100299.33;1733657;80;21089;-71
2022/08/04 04:36:14;;;;;;;13.20;12.00;;;;;;;19.65;100.00;100309.82;1733245;83;21049;-71
2022/08/04 04:39:04;;;;;;;14.98;13.30;;;;;;;19.65;100.00;100311.17;1733799;82;21607;-70
2022/08/04 04:41:59;;;;;;;13.58;12.30;;;;;;;19.63;100.00;100313.31;1740356;81;21451;-70
2022/08/04 04:44:36;;;;;;;20.57;12.28;;;;;;;19.64;100.00;100310.88;1749214;80;21052;-68
2022/08/04 04:47:33;;;;;;;14.55;11.83;;;;;;;19.69;100.00;100312.03;1750914;80;21006;-68
2022/08/04 04:50:06;;;;;;;;;;;;;;;19.76;100.00;100318.09;1728802;83;21081;-70
2022/08/04 04:52:50;;;;;;;11.90;10.80;;;;;;;19.78;100.00;100313.27;1726022;82;20102;-71
2022/08/04 04:55:37;;;;;;;12.25;10.93;;;;;;;19.77;100.00;100311.08;1731950;80;21033;-68
2022/08/04 04:58:03;;;;;;;12.10;11.10;;;;;;;19.85;100.00;100308.48;1731914;81;21102;-69
2022/08/04 05:01:05;;;;;;;12.05;10.82;;;;;;;19.91;100.00;100309.36;1760701;80;21157;-69
2022/08/04 05:04:11;;;;;;;13.43;12.15;;;;;;;19.96;100.00;100312.95;1686134;82;21152;-70
2022/08/04 05:06:55;;;;;;;14.85;13.38;;;;;;;19.96;100.00;100310.79;1666684;85;21211;-68
2022/08/04 05:09:47;;;;;;;13.60;12.37;;;;;;;19.95;100.00;100314.03;1693998;82;21542;-69
2022/08/04 05:12:49;;;;;;;12.58;11.57;;;;;;;19.95;100.00;100313.23;1715906;82;20990;-70
2022/08/04 05:15:16;;;;;;;13.95;11.40;;;;;;;19.93;100.00;100311.28;1711935;82;21009;-70
2022/08/04 05:17:49;;;;;;;16.50;13.32;;;;;;;19.91;100.00;100314.26;1723633;82;21022;-69
2022/08/04 05:20:35;;;;;;;12.40;11.40;;;;;;;19.94;100.00;100315.63;1751943;81;21041;-69
2022/08/04 05:23:23;;;;;;;14.43;13.08;;;;;;;19.99;100.00;100317.88;1741740;82;20959;-67
2022/08/04 05:25:58;;;;;;;14.95;13.55;;;;;;;20.00;100.00;100320.03;1749417;82;21017;-65
2022/08/04 05:28:42;;;;;;;14.98;13.58;;;;;;;19.99;100.00;100323.82;1754303;81;21045;-68
2022/08/04 05:31:30;;;;;;;13.30;11.97;;;;;;;20.00;100.00;100318.68;1738108;81;21067;-67
2022/08/04 05:34:07;;;;;;;15.20;13.50;;;;;;;20.03;100.00;100330.36;1747139;82;20990;-65
2022/08/04 05:36:51;;;;;;;13.22;12.13;;;;;;;20.02;100.00;100332.26;1745368;81;21066;-68
2022/08/04 05:39:34;;;;;;;13.90;12.73;;;;;;;19.95;100.00;100332.16;1745517;82;21076;-65
2022/08/04 05:42:03;;;;;;;16.25;14.68;;;;;;;19.92;100.00;100339.41;1755351;80;21485;-67
2022/08/04 05:44:32;;;;;;;15.28;13.78;;;;;;;19.92;100.00;100337.52;1750874;80;20997;-68
2022/08/04 05:47:03;;;;;;;14.98;13.55;;;;;;;19.97;100.00;100340.30;1734529;82;21025;-69
2022/08/04 05:49:29;;;;;;;16.60;14.90;;;;;;;20.03;100.00;100345.24;1738752;82;21002;-69
2022/08/04 05:52:00;;;;;;;15.15;13.43;;;;;;;20.08;100.00;100336.36;1750973;80;21059;-68
2022/08/04 05:54:29;;;;;;;14.23;12.80;;;;;;;20.14;100.00;100343.49;1737429;81;21033;-69
2022/08/04 05:56:57;;;;;;;14.43;13.10;;;;;;;20.14;100.00;100342.14;1747892;80;21005;-71
2022/08/04 05:59:26;;;;;;;22.58;12.98;;;;;;;20.14;100.00;100346.20;1727527;82;20994;-68
2022/08/04 06:01:57;;;;;;;13.35;12.18;;;;;;;20.15;100.00;100341.86;1736240;82;20989;-69
2022/08/04 06:04:34;;;;;;;13.70;12.47;;;;;;;20.20;100.00;100336.52;1735621;82;21249;-71
2022/08/04 06:07:04;;;;;;;13.75;12.55;;;;;;;20.26;100.00;100333.88;1755382;80;21505;-69
2022/08/04 06:09:32;;;;;;;13.43;12.43;;;;;;;20.32;100.00;100340.44;1746234;81;21620;-68
2022/08/04 06:12:03;;;;;;;14.00;12.85;;;;;;;20.39;100.00;100338.91;1750616;80;21108;-70
2022/08/04 06:14:37;;;;;;;15.72;14.00;;;;;;;20.47;100.00;100335.73;1765115;80;21093;-68
2022/08/04 06:17:07;;;;;;;13.95;12.75;;;;;;;20.55;100.00;100338.53;1761897;80;21029;-76
2022/08/04 06:19:36;;;;;;;13.68;12.37;;;;;;;20.63;100.00;100337.31;1761353;80;20995;-70
2022/08/04 06:22:05;;;;;;;12.85;11.85;;;;;;;20.80;100.00;100340.18;1746188;80;21115;-69
2022/08/04 06:24:36;;;;;;;13.50;12.15;;;;;;;21.06;100.00;100334.17;1740788;81;21025;-73
2022/08/04 06:27:05;;;;;;;13.83;12.85;;;;;;;21.29;98.33;100337.09;1748414;81;21037;-69
2022/08/04 06:29:36;;;;;;;15.10;13.62;;;;;;;21.41;96.49;100334.18;1770012;80;21000;-68
2022/08/04 06:36:21;;;;;;;13.85;12.75;;;;;;;21.38;95.44;100350.44;1799229;78;22982;-72
2022/08/04 06:38:49;;;;;;;15.32;13.98;;;;;;;21.23;96.13;100345.72;1746188;80;21526;-68
2022/08/04 06:41:16;;;;;;;13.62;12.53;;;;;;;21.16;96.67;100346.47;1776718;80;21030;-68
2022/08/04 06:43:43;;;;;;;14.73;13.22;;;;;;;21.15;96.83;100345.66;1772266;80;21061;-69
2022/08/04 06:46:11;;;;;;;14.75;13.45;;;;;;;21.14;96.80;100346.72;1734539;80;20952;-69
2022/08/04 06:48:39;;;;;;;14.75;13.43;;;;;;;21.15;96.58;100343.46;1734287;81;21105;-70
2022/08/04 06:51:06;;;;;;;15.03;13.53;;;;;;;21.18;96.71;100344.31;1696827;81;21035;-74
2022/08/04 06:53:34;;;;;;;14.58;12.45;;;;;;;21.20;96.33;100338.90;1733807;82;21974;-69
2022/08/04 06:56:01;;;;;;;14.45;13.25;;;;;;;21.23;96.64;100336.23;1732077;81;20989;-67
2022/08/04 06:58:31;;;;;;;13.55;12.43;;;;;;;21.27;96.41;100336.53;1729730;83;21562;-71
2022/08/04 07:01:00;;;;;;;14.05;12.95;;;;;;;21.31;95.62;100341.16;1741601;80;21089;-69
2022/08/04 07:03:28;;;;;;;13.55;12.40;;;;;;;21.32;95.57;100337.39;1764200;80;21082;-72
2022/08/04 07:05:56;;;;;;;14.50;13.30;;;;;;;21.31;95.74;100336.28;1731282;80;21003;-70
2022/08/04 07:08:23;;;;;;;13.50;12.40;;;;;;;21.36;95.66;100319.52;1765088;80;21208;-69
2022/08/04 07:10:52;;;;;;;14.18;12.88;;;;;;;21.45;94.62;100327.99;1757485;80;21013;-70
2022/08/04 07:13:20;;;;;;;14.50;13.08;;;;;;;21.52;94.29;100323.71;1753610;80;21129;-72
2022/08/04 07:15:47;;;;;;;14.47;12.07;;;;;;;21.60;94.52;100326.47;1755747;80;21213;-71
2022/08/04 07:18:15;;;;;;;13.45;12.23;;;;;;;21.73;93.56;100328.72;1760441;80;21307;-70
2022/08/04 07:20:43;;;;;;;13.18;12.15;;;;;;;21.84;92.52;100328.23;1754093;80;21017;-71
2022/08/04 07:23:16;;;;;;;13.60;12.47;;;;;;;21.88;91.60;100330.70;1736985;80;21100;-71
2022/08/04 07:25:42;;;;;;;14.50;13.28;;;;;;;21.89;91.34;100329.08;1691382;83;21117;-69
2022/08/04 07:28:08;;;;;;;13.75;12.55;;;;;;;21.87;91.74;100329.05;1690204;83;21112;-69
2022/08/04 07:30:36;;;;;;;14.47;13.28;;;;;;;21.80;91.91;100322.52;1697723;83;21156;-70
2022/08/04 07:33:05;;;;;;;15.45;14.03;;;;;;;21.87;91.53;100333.95;1698451;83;21120;-70
2022/08/04 07:35:33;;;;;;;13.95;12.75;;;;;;;21.94;91.21;100331.83;1665548;85;21124;-72
2022/08/04 07:37:59;;;;;;;13.75;12.55;;;;;;;22.01;89.97;100330.77;1685969;83;21154;-73
2022/08/04 07:40:25;;;;;;;14.73;13.43;;;;;;;22.06;89.47;100332.15;1719561;82;21048;-72
2022/08/04 07:42:52;;;;;;;14.25;12.80;;;;;;;22.05;89.29;100329.95;1713882;82;21058;-71
2022/08/04 07:45:21;;;;;;;18.30;16.67;;;;;;;22.04;88.99;100331.05;1712909;82;21007;-69
2022/08/04 07:47:48;;;;;;;13.85;12.75;;;;;;;22.05;89.26;100325.08;1683598;82;21070;-70
2022/08/04 07:50:15;;;;;;;19.35;17.60;;;;;;;22.13;89.51;100323.20;1719553;82;21026;-69
2022/08/04 07:52:42;;;;;;;14.28;13.08;;;;;;;22.22;88.91;100325.68;1714423;82;21100;-71
2022/08/04 07:55:09;;;;;;;11.83;10.55;;;;;;;22.35;88.83;100331.19;1712737;81;21084;-71
2022/08/04 07:57:36;;;;;;;13.65;12.55;;;;;;;22.43;86.73;100333.38;1709786;83;21601;-69
2022/08/04 08:00:08;;;;;;;14.73;13.30;;;;;;;22.46;86.95;100321.98;1719315;83;21078;-70
2022/08/04 08:02:37;;;;;;;11.75;10.58;;;;;;;22.48;87.40;100329.32;1705351;82;21004;-69
2022/08/04 08:05:04;;;;;;;12.50;11.18;;;;;;;22.54;86.87;100330.95;1703191;82;21455;-69
2022/08/04 08:07:30;;;;;;;12.18;11.08;;;;;;;22.59;86.75;100329.36;1711664;82;21030;-72
2022/08/04 08:09:57;;;;;;;12.47;11.33;;;;;;;22.60;86.18;100330.42;1716282;82;21604;-72
2022/08/04 08:12:24;;;;;;;12.95;11.95;;;;;;;22.60;86.08;100335.86;1717125;82;20963;-69
2022/08/04 08:14:51;;;;;;;15.85;11.50;;;;;;;22.60;86.15;100335.05;1711000;83;21598;-72
2022/08/04 08:17:17;;;;;;;12.65;11.68;;;;;;;22.64;86.17;100328.83;1716477;83;21062;-72
2022/08/04 08:19:43;;;;;;;11.88;10.88;;;;;;;22.65;84.18;100331.80;1683655;84;21153;-72
2022/08/04 08:22:10;;;;;;;11.97;10.80;;;;;;;22.53;84.23;100325.81;1683168;84;20996;-71
2022/08/04 08:24:38;;;;;;;12.37;10.43;;;;;;;22.56;85.07;100330.70;1689560;84;21494;-70
2022/08/04 08:27:06;;;;;;;12.90;11.70;;;;;;;22.63;85.46;100326.38;1718824;82;21712;-71
2022/08/04 08:29:34;;;;;;;12.35;11.38;;;;;;;22.71;85.15;100326.64;1724141;82;21015;-73
2022/08/04 08:32:03;;;;;;;11.75;10.45;;;;;;;22.76;83.57;100333.20;1722604;82;21022;-72
2022/08/04 08:34:32;;;;;;;11.33;10.23;;;;;;;22.76;83.00;100335.91;1710974;82;21118;-72
2022/08/04 08:37:34;;;;;;;10.32;9.30;;;;;;;22.70;82.28;100336.45;1721908;82;21486;-73
2022/08/04 08:40:20;;;;;;;10.03;9.10;;;;;;;22.64;81.10;100339.70;1721124;82;21134;-72
2022/08/04 08:43:16;;;;;;;8.65;8.05;;;;;;;22.83;80.86;100322.33;1720466;82;21053;-71
2022/08/04 08:46:26;;;;;;;10.68;9.88;;;;;;;22.83;80.86;100322.33;1681413;84;21046;-74
2022/08/04 08:49:12;;;;;;;9.90;9.13;;;;;;;23.15;78.84;100324.53;1657651;85;20950;-70
2022/08/04 08:51:53;;;;;;;9.45;8.68;;;;;;;23.44;76.48;100319.34;1659984;85;21082;-70
2022/08/04 08:54:44;;;;;;;10.25;9.25;;;;;;;23.59;75.76;100317.14;1611147;85;21019;-72
2022/08/04 08:57:52;;;;;;;9.45;8.50;;;;;;;23.73;75.29;100315.45;1718763;82;21094;-70
2022/08/04 09:00:27;;;;;;;8.55;7.78;;;;;;;23.86;73.52;100314.90;1721444;82;21026;-73
2022/08/04 09:03:19;;;;;;;8.35;7.47;;;;;;;23.97;72.01;100323.05;1714451;82;21082;-70
2022/08/04 09:06:03;;;;;;;7.85;7.25;;;;;;;24.04;71.42;100322.20;1716383;82;21069;-73
2022/08/04 09:09:04;;;;;;;7.97;7.47;;;;;;;24.17;72.08;100311.27;1714959;82;21086;-72
2022/08/04 09:11:44;;;;;;;9.03;8.43;;;;;;;24.24;70.50;100316.67;1722289;82;21078;-69
2022/08/04 09:14:18;;;;;;;8.60;7.80;;;;;;;24.26;72.82;100304.11;1721866;82;21011;-70
2022/08/04 09:16:50;;;;;;;9.05;7.53;;;;;;;24.33;74.92;100310.63;1723072;82;21527;-68
2022/08/04 09:19:22;;;;;;;9.03;8.10;;;;;;;24.41;75.20;100310.86;1720581;82;21036;-70
2022/08/04 09:22:21;;;;;;;8.93;7.87;;;;;;;24.46;75.89;100310.00;1719903;82;21569;-68
2022/08/04 09:24:56;;;;;;;8.78;7.95;;;;;;;24.43;75.59;100308.67;1718744;82;21040;-71
2022/08/04 09:27:47;;;;;;;8.68;7.97;;;;;;;24.38;75.38;100313.33;1662679;82;21032;-70
2022/08/04 09:30:19;;;;;;;8.23;7.40;;;;;;;24.34;75.20;100310.91;1719180;82;21550;-70
2022/08/04 09:32:57;;;;;;;8.25;7.45;;;;;;;24.32;75.83;100304.90;1717509;82;21089;-71
2022/08/04 09:35:46;;;;;;;8.40;7.55;;;;;;;24.32;75.72;100307.63;1722544;82;21054;-70
2022/08/04 09:38:25;;;;;;;8.15;7.35;;;;;;;24.43;75.98;100310.55;1719420;82;20998;-70
2022/08/04 09:40:58;;;;;;;7.95;7.15;;;;;;;24.62;75.25;100309.38;1718048;82;21060;-69
2022/08/04 09:44:02;;;;;;;7.60;6.92;;;;;;;24.78;74.44;100312.83;1722187;82;21009;-70
2022/08/04 09:46:52;;;;;;;8.75;7.97;;;;;;;24.87;72.93;100311.13;1718412;82;21039;-70
2022/08/04 09:49:24;;;;;;;8.10;7.58;;;;;;;24.90;72.41;100313.81;1717684;82;21020;-72
2022/08/04 09:51:56;;;;;;;7.00;6.35;;;;;;;24.88;72.10;100312.73;1719830;83;21543;-71
2022/08/04 09:54:46;;;;;;;7.42;6.92;;;;;;;24.80;72.43;100314.16;1718719;82;21556;-70
2022/08/04 09:57:28;;;;;;;6.62;6.22;;;;;;;24.73;72.73;100314.22;1721167;82;20985;-70
2022/08/04 10:00:06;;;;;;;7.70;7.08;;;;;;;24.65;72.64;100319.72;1720107;82;21037;-71
2022/08/04 10:02:54;;;;;;;7.42;6.72;;;;;;;24.63;72.72;100320.00;1717156;82;21043;-69
2022/08/04 10:05:41;;;;;;;9.25;6.97;;;;;;;24.66;73.10;100310.46;1717501;82;21116;-71
2022/08/04 10:08:43;;;;;;;;;;;;;;;24.70;72.60;100317.52;1720467;82;21112;-71
2022/08/04 10:11:33;;;;;;;7.15;6.55;;;;;;;24.71;72.63;100305.52;1722021;82;20132;-70
2022/08/04 10:14:10;;;;;;;6.78;6.17;;;;;;;24.70;72.95;100305.27;1716967;82;21505;-71
2022/08/04 10:16:59;;;;;;;7.70;7.03;;;;;;;24.79;72.52;100308.98;1657144;85;21071;-70
2022/08/04 10:19:30;;;;;;;7.25;6.65;;;;;;;24.91;72.22;100306.72;1659523;85;21122;-69
2022/08/04 10:22:29;;;;;;;6.65;6.10;;;;;;;24.96;71.86;100299.03;1720724;82;20981;-71
2022/08/04 10:25:18;;;;;;;6.58;6.17;;;;;;;25.01;71.75;100303.09;1717137;83;21536;-71
2022/08/04 10:27:55;;;;;;;6.00;5.70;;;;;;;25.04;71.86;100294.35;1718166;82;21489;-69
2022/08/04 10:30:22;;;;;;;7.20;5.22;;;;;;;25.10;71.26;100294.56;1721061;82;21603;-71
2022/08/04 10:33:24;;;;;;;6.10;5.50;;;;;;;25.16;71.03;100291.23;1722303;82;21044;-69
2022/08/04 10:36:03;;;;;;;6.53;6.08;;;;;;;25.21;71.06;100289.27;1721017;82;21667;-70
2022/08/04 10:38:39;;;;;;;6.45;5.95;;;;;;;25.30;70.43;100281.85;1722421;82;21067;-72
2022/08/04 10:41:12;;;;;;;6.23;5.57;;;;;;;25.39;70.08;100282.33;1713829;82;21707;-71
2022/08/04 10:43:47;;;;;;;5.87;5.42;;;;;;;25.54;69.53;100279.16;1688782;83;21096;-71
2022/08/04 10:46:38;;;;;;;6.10;5.50;;;;;;;25.64;68.75;100277.13;1690637;83;21029;-69
2022/08/04 10:49:21;;;;;;;5.03;4.83;;;;;;;25.73;68.43;100285.50;1691338;83;21422;-71
2022/08/04 10:52:06;;;;;;;5.37;4.92;;;;;;;25.78;68.14;100275.86;1694177;83;21085;-70
2022/08/04 10:54:42;;;;;;;5.65;5.12;;;;;;;25.85;67.95;100278.25;1688521;83;21086;-71
2022/08/04 10:57:40;;;;;;;6.03;5.45;;;;;;;25.94;67.94;100277.90;1679003;83;21057;-70
2022/08/04 11:00:18;;;;;;;5.60;5.30;;;;;;;25.98;66.68;100273.47;1674457;83;21138;-69
2022/08/04 11:03:07;;;;;;;;;;;;;;;25.95;65.71;100269.14;1647446;85;21114;-69
2022/08/04 11:05:52;;;;;;;6.75;6.03;;;;;;;25.96;67.93;100267.49;1615284;87;20146;-71
2022/08/04 11:08:28;;;;;;;7.85;5.53;;;;;;;25.81;69.39;100275.29;1614150;87;21108;-71
2022/08/04 11:11:24;;;;;;;8.03;7.17;;;;;;;25.56;70.60;100277.78;1674326;83;21537;-71
2022/08/04 11:14:16;;;;;;;7.00;6.58;;;;;;;25.27;73.75;100276.44;1684931;84;21020;-72
2022/08/04 11:16:56;;;;;;;6.92;6.42;;;;;;;24.99;75.22;100277.47;1683711;83;21540;-71
2022/08/04 11:19:40;;;;;;;7.50;6.90;;;;;;;24.76;76.96;100275.50;1684275;83;21121;-71
2022/08/04 11:22:25;;;;;;;7.50;6.92;;;;;;;24.63;76.76;100282.41;1676373;83;21106;-73
2022/08/04 11:25:20;;;;;;;6.42;5.92;;;;;;;24.59;77.16;100275.34;1649602;86;21106;-70
2022/08/04 11:28:22;;;;;;;6.50;6.10;;;;;;;24.63;77.57;100279.67;1641083;87;21037;-70
2022/08/04 11:31:13;;;;;;;6.70;6.10;;;;;;;24.74;76.15;100273.61;1620728;88;21066;-71
2022/08/04 11:33:59;;;;;;;6.65;6.12;;;;;;;24.79;75.50;100271.66;1654606;85;21017;-73
2022/08/04 11:36:37;;;;;;;5.65;5.35;;;;;;;24.80;75.62;100266.45;1673502;85;21074;-70
2022/08/04 11:39:37;;;;;;;5.70;5.20;;;;;;;24.76;72.74;100269.49;1672929;85;21077;-71
2022/08/04 11:42:24;;;;;;;6.70;4.58;;;;;;;24.73;71.97;100264.59;1676188;84;21050;-70
2022/08/04 11:45:04;;;;;;;4.97;4.15;;;;;;;24.76;71.19;100260.51;1675021;84;20990;-70
2022/08/04 11:47:50;;;;;;;4.67;4.28;;;;;;;24.86;69.84;100259.05;1663996;84;21096;-71
2022/08/04 11:50:37;;;;;;;5.60;5.15;;;;;;;24.97;68.33;100249.68;1674760;84;21107;-69
2022/08/04 11:53:06;;;;;;;7.25;6.72;;;;;;;25.15;70.22;100252.81;1669711;84;21028;-70
2022/08/04 11:55:33;;;;;;;5.85;5.42;;;;;;;25.27;71.05;100244.26;1668754;85;21057;-72
2022/08/04 11:58:01;;;;;;;6.58;5.83;;;;;;;25.39;70.02;100245.49;1667094;84;21025;-71
2022/08/04 12:00:30;;;;;;;8.83;5.40;;;;;;;25.49;69.99;100238.30;1635815;86;21037;-72
2022/08/04 12:03:32;;;;;;;6.37;5.92;;;;;;;25.56;69.92;100236.84;1679133;84;21507;-71
2022/08/04 12:06:31;;;;;;;6.30;5.87;;;;;;;25.63;69.89;100238.64;1677939;84;21490;-72
2022/08/04 12:09:11;;;;;;;5.65;5.15;;;;;;;25.68;69.22;100233.69;1631271;86;21064;-71
2022/08/04 12:12:21;;;;;;;6.47;5.97;;;;;;;25.74;69.06;100235.24;1653663;84;21517;-69
2022/08/04 12:15:12;;;;;;;7.08;6.10;;;;;;;25.81;68.92;100249.91;1624888;86;21126;-70
2022/08/04 12:18:20;;;;;;;5.87;5.47;;;;;;;25.79;69.40;100255.66;1633810;86;21093;-71
2022/08/04 12:21:03;;;;;;;5.85;5.55;;;;;;;25.65;69.39;100253.37;1631316;86;21073;-73